Time;durP1;ratioP1;P1;durP2;ratioP2;P2;SDS_P1;SDS_P2;PMS_P1;PMS_P2;Temp;Humidity;BMP_temperature;BMP_pressure;BME280_temperature;BME280_humidity;BME280_pressure;Samples;Min_cycle;Max_cycle;Signal;HPM_P1;HPM_P2
2021/12/05 00:24:18;;;;;;;33.83;11.40;;;4.20;99.90;;;;;;5061400;28;20087;-46
2021/12/05 00:26:51;;;;;;;32.78;12.38;;;4.20;99.90;;;;;;5080222;28;20058;-46
2021/12/05 00:47:31;;;;;;;40.83;13.13;;;4.20;99.90;;;;;;5089478;28;20204;-45
2021/12/05 00:53:53;;;;;;;32.33;11.50;;;4.20;99.90;;;;;;5089202;28;20110;-45
2021/12/05 01:06:26;;;;;;;36.08;11.27;;;4.20;99.90;;;;;;5080529;28;20155;-44
2021/12/05 01:09:00;;;;;;;31.48;11.60;;;4.20;99.90;;;;;;5066689;28;20546;-46
2021/12/05 01:16:27;;;;;;;24.80;9.57;;;4.10;99.90;;;;;;5088274;28;20040;-45
2021/12/05 01:18:54;;;;;;;25.40;9.75;;;4.10;99.90;;;;;;5050968;28;20044;-47
2021/12/05 01:21:23;;;;;;;27.65;9.07;;;4.10;99.90;;;;;;5051049;28;20044;-44
2021/12/05 01:26:42;;;;;;;25.27;9.60;;;4.10;99.90;;;;;;5098054;28;20623;-44
2021/12/05 01:32:11;;;;;;;24.20;9.45;;;4.10;99.90;;;;;;5100979;28;20572;-44
2021/12/05 01:37:53;;;;;;;20.80;9.20;;;4.00;99.90;;;;;;5043259;28;20453;-45
2021/12/05 01:44:12;;;;;;;26.13;8.48;;;3.90;99.90;;;;;;5070180;28;20093;-45
2021/12/05 01:51:42;;;;;;;;;;;3.90;99.90;;;;;;5089028;28;20048;-45
2021/12/05 02:40:05;;;;;;;15.10;7.22;;;3.70;99.90;;;;;;5008773;28;19965;-43
2021/12/05 02:42:34;;;;;;;16.10;7.70;;;3.70;99.90;;;;;;5047243;28;20044;-43
2021/12/05 02:45:05;;;;;;;20.73;7.75;;;3.70;99.90;;;;;;5067897;28;20048;-45
2021/12/05 02:47:32;;;;;;;15.38;7.22;;;3.70;99.90;;;;;;5082526;28;20052;-43
2021/12/05 02:50:00;;;;;;;15.73;7.22;;;3.70;99.90;;;;;;5069862;28;20041;-43
2021/12/05 02:52:32;;;;;;;20.15;8.05;;;3.70;99.90;;;;;;5053275;28;20052;-43
2021/12/05 02:55:09;;;;;;;16.55;8.73;;;3.60;99.90;;;;;;5068367;28;20135;-45
2021/12/05 03:00:23;;;;;;;19.45;8.02;;;3.60;99.90;;;;;;5073433;28;20059;-43
2021/12/05 03:02:52;;;;;;;23.05;8.25;;;3.60;99.90;;;;;;5076794;28;20036;-43
2021/12/05 03:05:21;;;;;;;15.80;7.70;;;3.60;99.90;;;;;;5099918;28;20628;-43
2021/12/05 03:07:50;;;;;;;23.95;8.70;;;3.60;99.90;;;;;;5082354;28;20079;-44
2021/12/05 03:10:20;;;;;;;21.58;9.20;;;3.60;99.90;;;;;;5077671;28;20036;-43
2021/12/05 03:12:46;;;;;;;23.15;8.77;;;3.60;99.90;;;;;;5075784;28;20052;-44
2021/12/05 03:15:15;;;;;;;20.35;8.10;;;3.60;99.90;;;;;;5081305;28;20066;-43
2021/12/05 03:17:42;;;;;;;17.50;8.57;;;3.70;99.90;;;;;;5070123;28;20119;-42
2021/12/05 03:20:10;;;;;;;16.95;8.40;;;3.70;99.90;;;;;;5049181;28;20540;-44
2021/12/05 03:22:36;;;;;;;22.10;8.90;;;3.70;99.90;;;;;;5080623;28;20086;-43
2021/12/05 03:25:04;;;;;;;18.50;8.35;;;3.70;99.90;;;;;;5079516;28;20039;-43
2021/12/05 03:27:31;;;;;;;18.45;8.20;;;3.70;99.90;;;;;;5071536;28;20047;-44
2021/12/05 03:29:57;;;;;;;17.83;7.90;;;3.70;99.90;;;;;;5081241;28;20063;-44
2021/12/05 03:32:23;;;;;;;18.83;7.30;;;3.70;99.90;;;;;;5055334;28;20127;-43
2021/12/05 03:34:49;;;;;;;19.08;7.95;;;3.70;99.90;;;;;;5072144;28;20485;-43
2021/12/05 03:37:15;;;;;;;17.40;7.70;;;3.70;99.90;;;;;;5090526;28;20043;-43
2021/12/05 03:39:41;;;;;;;15.75;8.20;;;3.70;99.90;;;;;;5077389;28;20058;-45
2021/12/05 03:42:07;;;;;;;28.50;9.68;;;3.70;99.90;;;;;;5092932;28;20480;-43
2021/12/05 03:44:36;;;;;;;23.17;9.20;;;3.70;99.90;;;;;;5090449;28;20479;-43
2021/12/05 03:47:05;;;;;;;20.52;8.07;;;3.70;99.90;;;;;;5085554;28;20044;-43
2021/12/05 03:49:32;;;;;;;28.50;9.00;;;3.70;99.90;;;;;;5072111;28;20077;-44
2021/12/05 03:52:06;;;;;;;22.67;7.93;;;3.70;99.90;;;;;;5090735;28;20044;-43
2021/12/05 03:54:32;;;;;;;17.25;8.15;;;3.70;99.90;;;;;;5093671;28;20055;-44
2021/12/05 03:56:59;;;;;;;18.70;8.93;;;3.70;99.90;;;;;;5071210;28;20048;-44
2021/12/05 03:59:28;;;;;;;18.40;8.38;;;3.80;99.90;;;;;;5047070;28;20055;-46
2021/12/05 04:01:58;;;;;;;23.70;9.43;;;3.70;99.90;;;;;;5058204;28;20032;-46
2021/12/05 04:04:25;;;;;;;21.80;8.75;;;3.70;99.90;;;;;;5075131;28;20497;-46
2021/12/05 04:06:51;;;;;;;18.52;8.82;;;3.70;99.90;;;;;;5088390;28;20058;-43
2021/12/05 04:09:19;;;;;;;20.42;8.75;;;3.70;99.90;;;;;;5063928;28;20044;-44
2021/12/05 04:12:02;;;;;;;17.00;8.70;;;3.70;99.90;;;;;;5071090;28;20051;-46
2021/12/05 04:14:36;;;;;;;26.98;9.32;;;3.70;99.90;;;;;;5060538;28;20043;-44
2021/12/05 04:17:04;;;;;;;22.90;9.75;;;3.70;99.90;;;;;;5070940;28;20406;-44
2021/12/05 04:19:30;;;;;;;21.08;10.18;;;3.70;99.90;;;;;;5083613;28;20044;-44
2021/12/05 04:21:57;;;;;;;22.70;9.88;;;3.70;99.90;;;;;;5070967;28;20119;-43
2021/12/05 04:24:24;;;;;;;19.30;10.15;;;3.60;99.90;;;;;;5089219;28;20040;-44
2021/12/05 04:26:51;;;;;;;22.75;9.85;;;3.60;99.90;;;;;;5088106;28;20421;-44
2021/12/05 04:29:19;;;;;;;18.85;10.60;;;3.60;99.90;;;;;;5065072;28;20111;-44
2021/12/05 04:31:45;;;;;;;27.35;10.35;;;3.60;99.90;;;;;;5079007;28;20531;-47
2021/12/05 04:34:14;;;;;;;19.25;9.77;;;3.60;99.90;;;;;;5108571;28;20350;-44
2021/12/05 04:36:43;;;;;;;24.38;10.27;;;3.60;99.90;;;;;;5058958;28;20816;-44
2021/12/05 04:39:09;;;;;;;26.50;10.75;;;3.60;99.90;;;;;;5070227;28;20032;-48
2021/12/05 04:41:39;;;;;;;23.63;10.80;;;3.60;99.90;;;;;;5083585;28;20527;-45
2021/12/05 04:44:06;;;;;;;24.27;12.00;;;3.60;99.90;;;;;;5050499;28;20367;-44
2021/12/05 04:46:33;;;;;;;28.33;12.30;;;3.60;99.90;;;;;;5083355;28;20047;-48
2021/12/05 04:49:00;;;;;;;27.30;11.48;;;3.60;99.90;;;;;;5109173;28;20055;-45
2021/12/05 04:51:33;;;;;;;28.50;12.55;;;3.60;99.90;;;;;;5077124;28;20048;-46
2021/12/05 04:53:59;;;;;;;23.20;12.18;;;3.60;99.90;;;;;;5078120;28;20043;-46
2021/12/05 04:56:26;;;;;;;25.08;12.40;;;3.60;99.90;;;;;;5088237;28;20058;-44
2021/12/05 04:58:55;;;;;;;29.58;12.25;;;3.60;99.90;;;;;;5070304;28;20059;-44
2021/12/05 05:01:22;;;;;;;31.30;12.38;;;3.60;99.90;;;;;;5097169;28;20062;-46
2021/12/05 05:03:48;;;;;;;32.05;13.45;;;3.60;99.90;;;;;;5088945;28;20036;-45
2021/12/05 05:06:16;;;;;;;32.35;14.15;;;3.60;99.90;;;;;;5087813;28;20040;-44
2021/12/05 05:08:50;;;;;;;25.58;12.63;;;3.60;99.90;;;;;;5098694;28;20119;-46
2021/12/05 05:11:18;;;;;;;28.75;13.63;;;3.60;99.90;;;;;;5056754;28;20527;-47
2021/12/05 05:13:46;;;;;;;28.83;13.10;;;3.60;99.90;;;;;;5088764;28;20117;-44
2021/12/05 05:16:15;;;;;;;30.60;13.55;;;3.60;99.90;;;;;;5071141;28;20128;-45
2021/12/05 05:18:48;;;;;;;32.88;14.95;;;3.60;99.90;;;;;;5071928;28;20028;-44
2021/12/05 05:24:06;;;;;;;26.77;13.63;;;3.60;99.90;;;;;;5095425;28;20053;-45
2021/12/05 05:48:32;;;;;;;27.00;12.50;;;3.60;99.90;;;;;;5035686;28;20429;-46
2021/12/05 05:51:00;;;;;;;32.58;14.30;;;3.60;99.90;;;;;;5101226;28;20048;-44
2021/12/05 05:53:26;;;;;;;;;;;3.60;99.90;;;;;;5081107;28;20169;-44
2021/12/05 05:55:54;;;;;;;21.73;11.90;;;3.60;99.90;;;;;;5083625;28;20006;-46
2021/12/05 05:58:23;;;;;;;34.45;13.32;;;3.50;99.90;;;;;;5092244;28;20496;-45
2021/12/05 06:01:14;;;;;;;30.35;13.35;;;3.50;99.90;;;;;;5090347;28;20040;-44
2021/12/05 06:03:37;;;;;;;30.80;11.55;;;3.60;99.90;;;;;;5053979;28;20795;-44
2021/12/05 06:06:10;;;;;;;27.08;12.02;;;3.60;99.90;;;;;;5066046;28;20059;-44
2021/12/05 06:08:38;;;;;;;28.90;12.23;;;3.50;99.90;;;;;;5100369;28;20485;-44
2021/12/05 06:11:08;;;;;;;23.77;11.98;;;3.50;99.90;;;;;;5092958;28;20504;-45
2021/12/05 06:13:36;;;;;;;26.27;12.15;;;3.50;99.90;;;;;;5090355;28;20048;-44
2021/12/05 06:16:03;;;;;;;31.60;11.25;;;3.50;99.90;;;;;;5094205;28;20076;-46
2021/12/05 06:18:29;;;;;;;24.65;11.95;;;3.50;99.90;;;;;;5084395;28;20356;-47
2021/12/05 06:20:56;;;;;;;26.52;11.00;;;3.50;99.90;;;;;;5056996;28;20040;-45
2021/12/05 06:23:23;;;;;;;30.60;11.07;;;3.50;99.90;;;;;;5091687;28;20043;-45
2021/12/05 06:25:50;;;;;;;31.73;11.30;;;3.50;99.90;;;;;;5053455;28;20045;-46
2021/12/05 06:28:18;;;;;;;;;;;3.50;99.90;;;;;;5082385;28;20131;-46
2021/12/05 06:31:08;;;;;;;25.10;9.93;;;3.40;99.90;;;;;;5089260;28;19915;-47
2021/12/05 06:39:21;;;;;;;25.30;9.32;;;3.40;99.90;;;;;;5086340;28;20047;-45
2021/12/05 06:41:57;;;;;;;17.20;8.90;;;3.40;99.90;;;;;;5089274;28;20121;-44
2021/12/05 06:47:27;;;;;;;21.90;8.52;;;3.40;99.90;;;;;;5079038;28;20120;-44
2021/12/05 06:49:55;;;;;;;24.70;8.57;;;3.40;99.90;;;;;;5074630;28;20103;-44
2021/12/05 06:52:22;;;;;;;19.90;8.07;;;3.40;99.90;;;;;;5104430;28;20040;-44
2021/12/05 06:54:48;;;;;;;21.73;8.05;;;3.40;99.90;;;;;;5042116;28;20047;-45
2021/12/05 06:57:14;;;;;;;28.00;9.13;;;3.30;99.90;;;;;;5080763;28;20436;-44
2021/12/05 06:59:43;;;;;;;18.27;7.18;;;3.40;99.90;;;;;;5080839;28;20061;-44
2021/12/05 07:02:09;;;;;;;25.95;9.98;;;3.30;99.90;;;;;;5091210;28;20336;-44
2021/12/05 07:07:06;;;;;;;23.30;7.35;;;3.30;99.90;;;;;;5094603;28;20047;-44
2021/12/05 07:09:32;;;;;;;;;;;3.30;99.90;;;;;;5069893;28;20044;-44
2021/12/05 07:14:46;;;;;;;18.15;6.95;;;3.30;99.90;;;;;;5079092;28;20051;-44
2021/12/05 07:22:37;;;;;;;17.98;8.13;;;3.30;99.90;;;;;;5070405;28;20054;-44
2021/12/05 07:25:27;;;;;;;20.15;7.15;;;3.20;99.90;;;;;;5089748;28;20119;-44
2021/12/05 07:43:58;;;;;;;21.20;7.18;;;3.30;99.90;;;;;;5087483;28;20473;-45
2021/12/05 07:46:25;;;;;;;19.50;7.78;;;3.20;99.90;;;;;;5090138;28;20040;-47
2021/12/05 07:48:51;;;;;;;23.02;8.07;;;3.30;99.90;;;;;;5065149;28;20081;-45
2021/12/05 07:54:02;;;;;;;17.65;7.43;;;3.30;99.90;;;;;;5087655;28;20044;-44
2021/12/05 08:14:23;;;;;;;24.65;8.25;;;3.30;99.90;;;;;;5086519;28;20043;-45
2021/12/05 08:15:13;;;;;;;21.73;7.85;;;3.30;99.90;;;;;;5068626;28;20173;-45
2021/12/05 08:17:40;;;;;;;19.77;8.57;;;3.30;99.90;;;;;;5067928;28;20055;-46
2021/12/05 08:20:10;;;;;;;21.42;9.27;;;3.40;99.90;;;;;;5087740;28;20074;-47
2021/12/05 08:22:36;;;;;;;21.17;8.55;;;3.40;99.90;;;;;;5085568;28;20054;-43
2021/12/05 08:25:10;;;;;;;24.95;9.25;;;3.40;99.90;;;;;;5088265;28;20334;-47
2021/12/05 08:27:40;;;;;;;19.38;9.05;;;3.40;99.90;;;;;;5087299;28;20080;-44
2021/12/05 08:30:11;;;;;;;19.95;8.32;;;3.40;99.90;;;;;;5078894;28;20075;-45
2021/12/05 09:25:08;;;;;;;25.35;10.70;;;3.70;99.90;;;;;;5073234;28;20067;-46
2021/12/05 09:27:25;;;;;;;22.55;10.07;;;3.70;99.90;;;;;;5062829;28;20453;-44
2021/12/05 09:50:56;;;;;;;20.00;10.40;;;3.60;99.90;;;;;;5083846;28;20041;-44
2021/12/05 10:02:37;;;;;;;26.02;9.88;;;3.60;99.90;;;;;;5070219;28;20078;-46
2021/12/05 10:08:24;;;;;;;24.42;11.30;;;3.70;99.90;;;;;;5070398;28;20041;-44
2021/12/05 10:16:18;;;;;;;25.33;10.95;;;3.70;99.90;;;;;;5035219;28;20052;-47
2021/12/05 10:27:26;;;;;;;26.00;10.27;;;3.70;99.90;;;;;;5070341;28;20048;-45
2021/12/05 10:38:13;;;;;;;22.73;10.15;;;3.70;99.90;;;;;;5089362;28;20043;-46
2021/12/05 10:40:44;;;;;;;25.65;10.60;;;3.70;99.90;;;;;;5055664;28;20071;-46
2021/12/05 10:43:16;;;;;;;27.42;11.65;;;3.80;99.90;;;;;;5071409;28;20394;-48
2021/12/05 10:45:55;;;;;;;24.23;11.52;;;3.80;99.90;;;;;;5093586;28;20048;-45
2021/12/05 10:48:29;;;;;;;27.02;11.73;;;3.80;99.90;;;;;;5055506;28;20044;-49
2021/12/05 10:50:59;;;;;;;25.17;10.30;;;3.80;99.90;;;;;;5072084;28;20051;-45
2021/12/05 10:53:28;;;;;;;26.30;11.10;;;3.80;99.90;;;;;;5056519;28;20052;-46
2021/12/05 10:55:57;;;;;;;29.65;11.00;;;3.80;99.90;;;;;;5055379;28;20035;-49
2021/12/05 10:58:30;;;;;;;21.58;9.75;;;3.80;99.90;;;;;;5072119;28;20047;-45
2021/12/05 11:01:24;;;;;;;26.83;11.05;;;3.90;99.90;;;;;;5089627;28;20036;-47
2021/12/05 11:03:54;;;;;;;26.42;11.32;;;3.90;99.90;;;;;;5070802;28;20516;-47
2021/12/05 11:06:52;;;;;;;28.15;11.70;;;3.90;99.90;;;;;;5089418;28;20097;-45
2021/12/05 11:09:30;;;;;;;33.30;11.43;;;3.90;99.90;;;;;;5075346;28;20048;-47
2021/12/05 11:12:00;;;;;;;29.50;11.95;;;3.90;99.90;;;;;;5072396;28;20056;-45
2021/12/05 11:14:29;;;;;;;23.80;10.77;;;4.00;99.90;;;;;;5089937;28;20825;-45
2021/12/05 11:16:59;;;;;;;23.58;10.77;;;4.00;99.90;;;;;;5090506;28;20127;-45
2021/12/05 11:19:27;;;;;;;26.20;11.73;;;4.00;99.90;;;;;;5086899;28;20032;-47
2021/12/05 11:22:01;;;;;;;21.05;10.65;;;4.00;99.90;;;;;;5089957;28;20385;-46
2021/12/05 11:24:31;;;;;;;25.65;11.32;;;4.10;99.90;;;;;;5089719;28;20591;-45
2021/12/05 11:27:26;;;;;;;23.65;10.75;;;4.10;99.90;;;;;;5092099;28;20303;-46
2021/12/05 11:30:04;;;;;;;25.90;11.73;;;4.10;99.90;;;;;;5068750;28;20104;-46
2021/12/05 11:32:38;;;;;;;;;;;4.20;99.90;;;;;;5089440;28;20043;-46
2021/12/05 11:35:12;;;;;;;24.92;11.57;;;4.20;99.90;;;;;;5090011;28;19926;-47
2021/12/05 11:37:50;;;;;;;22.63;10.90;;;4.30;99.90;;;;;;5070361;28;20501;-46
2021/12/05 11:40:16;;;;;;;;;;;4.30;99.90;;;;;;5070430;28;20044;-45
2021/12/05 11:43:03;;;;;;;22.85;11.93;;;4.40;99.90;;;;;;5070839;28;19973;-46
2021/12/05 11:45:48;;;;;;;26.10;11.15;;;4.50;99.90;;;;;;5084119;28;20038;-49
2021/12/05 11:48:24;;;;;;;22.58;11.52;;;4.50;99.90;;;;;;5056404;28;20040;-45
2021/12/05 11:50:59;;;;;;;23.90;11.38;;;4.60;99.90;;;;;;5083554;28;21147;-48
2021/12/05 11:53:42;;;;;;;24.02;11.35;;;4.70;99.90;;;;;;5078660;28;20102;-46
2021/12/05 11:56:09;;;;;;;24.20;11.52;;;4.80;99.90;;;;;;5080238;28;20641;-46
2021/12/05 11:58:36;;;;;;;21.02;10.65;;;4.80;99.90;;;;;;5084741;28;20047;-45
2021/12/05 12:01:12;;;;;;;25.92;11.15;;;4.90;99.90;;;;;;5084216;28;20197;-46
2021/12/05 12:03:39;;;;;;;24.13;11.13;;;4.90;99.90;;;;;;5080624;28;20055;-48
2021/12/05 12:06:08;;;;;;;21.38;10.18;;;4.90;99.90;;;;;;5062182;28;20040;-48
2021/12/05 12:08:34;;;;;;;31.95;12.20;;;5.00;99.90;;;;;;5083089;28;20113;-46
2021/12/05 12:11:02;;;;;;;23.08;11.05;;;5.00;99.90;;;;;;5085162;28;20044;-47
2021/12/05 12:13:38;;;;;;;24.92;10.48;;;5.00;99.90;;;;;;5066023;28;20055;-44
2021/12/05 12:16:07;;;;;;;19.70;9.60;;;5.00;99.90;;;;;;5106495;28;20125;-44
2021/12/05 12:18:39;;;;;;;20.85;9.95;;;5.00;99.90;;;;;;5083970;28;20487;-45
2021/12/05 12:21:26;;;;;;;28.13;10.90;;;5.10;99.90;;;;;;5084661;28;20040;-48
2021/12/05 12:23:55;;;;;;;19.02;10.18;;;5.10;99.90;;;;;;5082857;28;20513;-47
2021/12/05 12:26:22;;;;;;;19.45;10.50;;;5.10;99.90;;;;;;5082094;28;20032;-45
2021/12/05 12:28:48;;;;;;;17.90;8.93;;;5.20;99.90;;;;;;5077574;28;20040;-47
2021/12/05 12:31:32;;;;;;;21.75;10.02;;;5.20;99.90;;;;;;5083943;28;20036;-48
2021/12/05 12:34:05;;;;;;;26.70;10.25;;;5.20;99.90;;;;;;5081650;28;20412;-45
2021/12/05 12:36:47;;;;;;;20.30;9.20;;;5.20;99.90;;;;;;5077138;28;20607;-45
2021/12/05 12:39:15;;;;;;;20.92;9.35;;;5.30;99.90;;;;;;5107022;28;20526;-46
2021/12/05 12:41:55;;;;;;;20.23;9.45;;;5.20;99.90;;;;;;5082716;28;20032;-48
2021/12/05 12:44:21;;;;;;;20.20;9.30;;;5.20;99.90;;;;;;5084174;28;20044;-45
2021/12/05 12:46:55;;;;;;;25.40;9.93;;;5.20;99.90;;;;;;5073159;28;20048;-46
2021/12/05 12:49:24;;;;;;;18.60;8.75;;;5.20;99.90;;;;;;5063656;28;20094;-47
2021/12/05 12:51:57;;;;;;;18.00;10.02;;;5.20;99.90;;;;;;5074621;28;20487;-46
2021/12/05 12:54:26;;;;;;;19.08;9.40;;;5.10;99.90;;;;;;5063766;28;20442;-45
2021/12/05 12:57:09;;;;;;;22.05;10.02;;;5.10;99.90;;;;;;5084055;28;20040;-46
2021/12/05 12:59:39;;;;;;;16.40;9.90;;;5.10;99.90;;;;;;5068688;28;20533;-46
2021/12/05 13:02:31;;;;;;;18.00;9.98;;;5.10;99.90;;;;;;5062198;28;20494;-46
2021/12/05 13:05:41;;;;;;;19.88;9.48;;;5.10;99.90;;;;;;5069375;28;20044;-46
2021/12/05 13:10:36;;;;;;;18.17;9.90;;;5.10;99.90;;;;;;5063222;28;20048;-45
2021/12/05 13:13:32;;;;;;;15.85;9.38;;;5.00;99.90;;;;;;5055629;28;20082;-48
2021/12/05 13:16:12;;;;;;;22.38;9.88;;;5.00;99.90;;;;;;5058446;28;20510;-47
2021/12/05 13:18:40;;;;;;;21.38;10.30;;;5.00;99.90;;;;;;5055404;28;20207;-45
2021/12/05 13:21:15;;;;;;;22.55;10.23;;;5.00;99.90;;;;;;5069661;28;20068;-48
2021/12/05 13:23:53;;;;;;;20.05;8.88;;;5.00;99.90;;;;;;5066553;28;20586;-46
2021/12/05 13:26:19;;;;;;;;;;;5.10;99.90;;;;;;5064124;28;20122;-45
2021/12/05 13:28:52;;;;;;;19.58;9.68;;;5.00;99.90;;;;;;5044281;28;19917;-46
2021/12/05 13:31:30;;;;;;;19.40;9.05;;;5.10;99.90;;;;;;5053444;28;20044;-47
2021/12/05 13:34:15;;;;;;;19.13;8.30;;;5.10;99.90;;;;;;5060298;28;20469;-46
2021/12/05 13:36:43;;;;;;;16.35;8.18;;;5.10;99.90;;;;;;5058510;28;20041;-45
2021/12/05 13:39:34;;;;;;;18.38;9.60;;;5.10;99.90;;;;;;5057671;28;20110;-45
2021/12/05 13:42:09;;;;;;;17.50;9.57;;;5.10;99.90;;;;;;5062484;28;20076;-48
2021/12/05 13:44:57;;;;;;;18.42;8.32;;;5.10;99.90;;;;;;5066777;28;20047;-44
2021/12/05 13:47:29;;;;;;;18.25;8.93;;;5.10;99.90;;;;;;5057183;28;20058;-46
2021/12/05 13:49:56;;;;;;;19.60;8.65;;;5.00;99.90;;;;;;5070860;28;20135;-47
2021/12/05 13:52:36;;;;;;;19.98;9.75;;;5.10;99.90;;;;;;5069080;28;20052;-47
2021/12/05 13:55:41;;;;;;;17.45;8.60;;;5.00;99.90;;;;;;5103121;28;20040;-47
2021/12/05 13:58:41;;;;;;;17.73;8.38;;;4.90;99.90;;;;;;5066085;28;20478;-45
2021/12/05 14:01:16;;;;;;;21.27;9.15;;;4.90;99.90;;;;;;5055084;28;20059;-45
2021/12/05 14:03:54;;;;;;;19.90;8.85;;;4.90;99.90;;;;;;5050439;28;20083;-45
2021/12/05 14:06:44;;;;;;;20.13;9.40;;;4.80;99.90;;;;;;5055197;28;20045;-48
2021/12/05 14:09:17;;;;;;;20.77;10.90;;;4.80;99.90;;;;;;5050610;28;20060;-46
2021/12/05 14:12:04;;;;;;;18.83;10.15;;;4.70;99.90;;;;;;5054906;28;20029;-46
2021/12/05 14:14:35;;;;;;;23.50;10.15;;;4.70;99.90;;;;;;5049007;28;20041;-45
2021/12/05 14:17:04;;;;;;;24.58;9.85;;;4.60;99.90;;;;;;5058480;28;20032;-45
2021/12/05 14:19:33;;;;;;;20.75;9.90;;;4.60;99.90;;;;;;5053019;28;20048;-45
2021/12/05 14:22:02;;;;;;;18.25;9.65;;;4.60;99.90;;;;;;5062333;28;20049;-46
2021/12/05 14:24:32;;;;;;;21.58;10.40;;;4.60;99.90;;;;;;5035568;28;20041;-45
2021/12/05 14:27:02;;;;;;;19.75;9.63;;;4.60;99.90;;;;;;5066658;28;20048;-45
2021/12/05 14:29:30;;;;;;;21.60;10.40;;;4.60;99.90;;;;;;5049922;28;20043;-45
2021/12/05 14:32:00;;;;;;;20.25;10.57;;;4.50;99.90;;;;;;5062758;28;20134;-45
2021/12/05 14:34:27;;;;;;;17.60;9.88;;;4.50;99.90;;;;;;5101756;28;20513;-45
2021/12/05 14:37:15;;;;;;;22.05;10.00;;;4.50;99.90;;;;;;5069766;28;20036;-46
2021/12/05 14:39:45;;;;;;;25.02;10.98;;;4.50;99.90;;;;;;5056528;28;20040;-45
2021/12/05 14:42:19;;;;;;;28.48;10.13;;;4.40;99.90;;;;;;5059340;28;20036;-47
2021/12/05 14:45:02;;;;;;;21.60;9.30;;;4.40;99.90;;;;;;5060838;28;20082;-45
2021/12/05 14:47:30;;;;;;;24.33;10.40;;;4.40;99.90;;;;;;5068578;28;20115;-44
2021/12/05 14:50:03;;;;;;;18.30;9.27;;;4.40;99.90;;;;;;5067382;28;20048;-47
2021/12/05 14:52:32;;;;;;;22.35;10.43;;;4.40;99.90;;;;;;5061070;28;20047;-44
2021/12/05 14:55:00;;;;;;;19.67;10.20;;;4.40;99.90;;;;;;5095190;28;20042;-44
2021/12/05 14:57:34;;;;;;;21.67;9.90;;;4.40;99.90;;;;;;5068623;28;20032;-45
2021/12/05 15:00:28;;;;;;;22.15;10.10;;;4.40;99.90;;;;;;5066126;28;20036;-44
2021/12/05 15:03:03;;;;;;;17.95;10.20;;;4.40;99.90;;;;;;5061555;28;20094;-45
2021/12/05 15:05:29;;;;;;;29.40;11.38;;;4.40;99.90;;;;;;5067548;28;20462;-45
2021/12/05 15:08:14;;;;;;;26.17;11.02;;;4.30;99.90;;;;;;5068048;28;20059;-45
2021/12/05 15:10:41;;;;;;;20.73;10.80;;;4.40;99.90;;;;;;5092079;28;20447;-45
2021/12/05 15:13:09;;;;;;;21.38;10.68;;;4.30;99.90;;;;;;5064815;28;20041;-45
2021/12/05 15:15:36;;;;;;;24.15;11.65;;;4.30;99.90;;;;;;5067279;28;20496;-44
2021/12/05 15:18:05;;;;;;;23.05;10.93;;;4.30;99.90;;;;;;5049676;28;20052;-44
2021/12/05 15:20:33;;;;;;;23.80;11.85;;;4.30;99.90;;;;;;5061883;28;20044;-44
2021/12/05 15:23:03;;;;;;;20.58;11.02;;;4.30;99.90;;;;;;5056040;28;20080;-44
2021/12/05 15:25:30;;;;;;;22.08;11.30;;;4.30;99.90;;;;;;5068883;28;20048;-44
2021/12/05 15:27:58;;;;;;;26.85;11.70;;;4.30;99.90;;;;;;5061908;28;20044;-44
2021/12/05 15:30:31;;;;;;;25.75;12.75;;;4.30;99.90;;;;;;5050626;28;20094;-44
2021/12/05 15:33:01;;;;;;;25.95;12.25;;;4.30;99.90;;;;;;5047546;28;20532;-45
2021/12/05 15:35:28;;;;;;;25.40;13.20;;;4.30;99.90;;;;;;5047876;28;20116;-44
2021/12/05 15:37:59;;;;;;;26.83;12.75;;;4.30;99.90;;;;;;5086354;28;20611;-44
2021/12/05 15:40:27;;;;;;;28.58;13.60;;;4.30;99.90;;;;;;5063134;28;20053;-46
2021/12/05 15:43:04;;;;;;;31.65;14.10;;;4.20;99.90;;;;;;5035839;28;20044;-46
2021/12/05 15:45:31;;;;;;;32.17;14.77;;;4.20;99.90;;;;;;5087624;28;20483;-46
2021/12/05 15:47:59;;;;;;;25.27;14.07;;;4.20;99.90;;;;;;5066499;28;20045;-45
2021/12/05 15:50:28;;;;;;;27.35;15.25;;;4.20;99.90;;;;;;5061502;28;20064;-46
2021/12/05 15:52:58;;;;;;;31.60;14.80;;;4.20;99.90;;;;;;5050611;28;20541;-46
2021/12/05 15:55:35;;;;;;;28.38;14.00;;;4.10;99.90;;;;;;5080852;28;20482;-45
2021/12/05 15:58:06;;;;;;;30.92;14.00;;;4.10;99.90;;;;;;5033198;28;20056;-45
2021/12/05 16:00:46;;;;;;;26.95;13.60;;;4.10;99.90;;;;;;5067651;28;20059;-46
2021/12/05 16:03:17;;;;;;;30.17;14.45;;;4.10;99.90;;;;;;5050101;28;20045;-45
2021/12/05 16:05:45;;;;;;;26.50;14.70;;;4.10;99.90;;;;;;5052581;28;20051;-45
2021/12/05 16:08:16;;;;;;;31.38;14.55;;;4.10;99.90;;;;;;5047752;28;20171;-46
2021/12/05 16:10:49;;;;;;;28.00;14.68;;;4.10;99.90;;;;;;5050674;28;20149;-46
2021/12/05 16:13:30;;;;;;;26.48;14.55;;;4.00;99.90;;;;;;5047735;28;20484;-47
2021/12/05 16:16:08;;;;;;;26.45;14.55;;;4.00;99.90;;;;;;5030003;28;20422;-47
2021/12/05 16:18:36;;;;;;;32.72;15.25;;;4.00;99.90;;;;;;5058350;28;20043;-45
2021/12/05 16:21:06;;;;;;;28.38;13.77;;;3.90;99.90;;;;;;5066667;28;20043;-45
2021/12/05 16:23:34;;;;;;;26.35;14.45;;;3.90;99.90;;;;;;5067480;28;20468;-47
2021/12/05 16:26:13;;;;;;;32.03;14.55;;;3.80;99.90;;;;;;5064689;28;20048;-45
2021/12/05 16:28:55;;;;;;;29.17;15.30;;;3.70;99.90;;;;;;5063272;28;20102;-48
2021/12/05 16:31:31;;;;;;;31.00;15.57;;;3.70;99.90;;;;;;5053138;28;20120;-45
2021/12/05 16:34:01;;;;;;;30.98;16.35;;;3.70;99.90;;;;;;5048738;28;20094;-48
2021/12/05 16:36:32;;;;;;;30.42;14.82;;;3.70;99.90;;;;;;5043178;28;20067;-45
2021/12/05 16:39:12;;;;;;;33.15;16.38;;;3.70;99.90;;;;;;5067342;28;20064;-45
2021/12/05 16:41:47;;;;;;;36.65;16.50;;;3.60;99.90;;;;;;5034250;28;20045;-46
2021/12/05 16:44:20;;;;;;;31.73;16.42;;;3.70;99.90;;;;;;5051244;28;20052;-48
2021/12/05 16:46:49;;;;;;;33.67;16.92;;;3.70;99.90;;;;;;5065174;28;20037;-46
2021/12/05 16:49:19;;;;;;;32.80;16.98;;;3.70;99.90;;;;;;5067405;28;20114;-46
2021/12/05 16:51:47;;;;;;;34.10;16.65;;;3.70;99.90;;;;;;5064999;28;20052;-48
2021/12/05 16:54:18;;;;;;;31.35;16.25;;;3.70;99.90;;;;;;5055433;28;20596;-45
2021/12/05 16:56:55;;;;;;;28.33;16.70;;;3.70;99.90;;;;;;5051773;28;20033;-45
2021/12/05 16:59:32;;;;;;;31.70;15.55;;;3.70;99.90;;;;;;5064114;28;20078;-44
2021/12/05 17:02:17;;;;;;;32.15;17.33;;;3.70;99.90;;;;;;5050626;28;20037;-46
2021/12/05 17:04:49;;;;;;;34.03;15.05;;;3.70;99.90;;;;;;5067820;28;20045;-45
2021/12/05 17:07:36;;;;;;;35.97;16.30;;;3.70;99.90;;;;;;5060875;28;20190;-45
2021/12/05 17:10:04;;;;;;;28.38;15.30;;;3.60;99.90;;;;;;5051270;28;20062;-44
2021/12/05 17:12:34;;;;;;;31.45;15.63;;;3.60;99.90;;;;;;5067388;28;20045;-44
2021/12/05 17:15:27;;;;;;;32.88;17.08;;;3.60;99.90;;;;;;5051398;28;20047;-46
2021/12/05 17:18:02;;;;;;;33.63;16.58;;;3.60;99.90;;;;;;5087542;28;20119;-45
2021/12/05 17:20:34;;;;;;;26.85;14.55;;;3.60;99.90;;;;;;5051104;28;20521;-46
2021/12/05 17:23:09;;;;;;;28.95;14.63;;;3.60;99.90;;;;;;5055014;28;20040;-45
2021/12/05 17:25:35;;;;;;;26.35;13.73;;;3.50;99.90;;;;;;5056369;28;20547;-45
2021/12/05 17:28:06;;;;;;;30.02;14.02;;;3.50;99.90;;;;;;5049567;28;20112;-45
2021/12/05 17:30:32;;;;;;;23.77;13.52;;;3.50;99.90;;;;;;5052268;28;20112;-46
2021/12/05 17:32:59;;;;;;;23.85;12.85;;;3.50;99.90;;;;;;5069896;28;20033;-45
2021/12/05 17:35:30;;;;;;;22.80;13.32;;;3.40;99.90;;;;;;5055283;28;20068;-45
2021/12/05 17:37:57;;;;;;;25.88;14.25;;;3.40;99.90;;;;;;5042479;28;20042;-44
2021/12/05 17:40:23;;;;;;;26.83;14.05;;;3.40;99.90;;;;;;5055140;28;20056;-45
2021/12/05 17:42:49;;;;;;;25.23;13.57;;;3.40;99.90;;;;;;5043432;28;20124;-44
2021/12/05 17:45:16;;;;;;;25.52;13.55;;;3.40;99.90;;;;;;5063654;28;20112;-45
2021/12/05 17:47:43;;;;;;;24.92;14.38;;;3.30;99.90;;;;;;5042547;28;20052;-45
2021/12/05 17:50:13;;;;;;;24.00;13.02;;;3.30;99.90;;;;;;5055346;28;20056;-45
2021/12/05 17:52:39;;;;;;;25.45;13.90;;;3.20;99.90;;;;;;5070699;28;20109;-44
2021/12/05 17:55:18;;;;;;;26.90;13.50;;;3.20;99.90;;;;;;5068618;28;20475;-45
2021/12/05 17:57:59;;;;;;;24.75;12.98;;;3.10;99.90;;;;;;5058519;28;20033;-45
2021/12/05 18:00:38;;;;;;;25.38;13.48;;;3.10;99.90;;;;;;5047028;28;20450;-45
2021/12/05 18:03:08;;;;;;;24.35;13.15;;;3.10;99.90;;;;;;5052504;28;20391;-46
2021/12/05 18:05:36;;;;;;;30.98;14.73;;;3.10;99.90;;;;;;5070077;28;20097;-44
2021/12/05 18:08:10;;;;;;;21.50;12.02;;;3.00;99.90;;;;;;5065922;28;20037;-44
2021/12/05 18:10:47;;;;;;;25.65;12.90;;;2.90;99.90;;;;;;5053421;28;20463;-44
2021/12/05 18:13:13;;;;;;;24.70;14.13;;;3.00;99.90;;;;;;5062137;28;20037;-46
2021/12/05 18:15:55;;;;;;;27.58;14.45;;;2.90;99.90;;;;;;5050458;28;20037;-44
2021/12/05 18:18:21;;;;;;;28.98;14.77;;;3.00;99.90;;;;;;5050281;28;20486;-44
2021/12/05 18:20:47;;;;;;;25.87;14.83;;;2.90;99.90;;;;;;5083072;28;20044;-45
2021/12/05 18:23:14;;;;;;;25.40;15.27;;;3.00;99.90;;;;;;5058801;28;20044;-45